createdAt,value
2022-09-12T00:01:53.214Z,22.43
2022-09-12T00:04:20.079Z,26.40
2022-09-12T00:06:46.865Z,21.87
2022-09-12T00:09:14.313Z,21.37
2022-09-12T00:11:44.766Z,22.90
2022-09-12T00:14:17.524Z,18.10
2022-09-12T00:16:45.223Z,18.47
2022-09-12T00:19:12.580Z,17.30
2022-09-12T00:21:40.559Z,19.50
2022-09-12T00:24:07.896Z,16.60
2022-09-12T00:26:34.829Z,18.23
2022-09-12T00:29:01.592Z,16.57
2022-09-12T00:31:29.105Z,19.97
2022-09-12T00:33:58.067Z,19.80
2022-09-12T00:36:25.793Z,18.20
2022-09-12T00:38:54.546Z,18.80
2022-09-12T00:41:28.622Z,19.77
2022-09-12T00:44:22.871Z,17.30
2022-09-12T00:46:58.899Z,16.93
2022-09-12T00:49:38.452Z,18.67
2022-09-12T00:52:10.061Z,23.50
2022-09-12T00:54:42.686Z,17.57
2022-09-12T00:57:12.025Z,20.93
2022-09-12T00:59:44.462Z,18.63
2022-09-12T01:02:11.648Z,19.73
2022-09-12T01:04:40.823Z,18.73
2022-09-12T01:07:09.160Z,19.77
2022-09-12T01:09:38.022Z,18.20
2022-09-12T01:12:06.008Z,20.67
2022-09-12T01:14:32.964Z,20.43
2022-09-12T01:16:59.716Z,17.80
2022-09-12T01:20:04.850Z,20.27
2022-09-12T01:23:01.076Z,19.37
2022-09-12T01:25:48.801Z,23.63
2022-09-12T01:28:40.329Z,20.37
2022-09-12T01:31:48.515Z,21.93
2022-09-12T01:34:30.700Z,20.63
2022-09-12T01:37:07.620Z,23.23
2022-09-12T01:40:01.597Z,27.90
2022-09-12T01:42:36.123Z,25.00
2022-09-12T01:45:33.840Z,20.13
2022-09-12T01:48:07.664Z,21.27
2022-09-12T01:50:44.314Z,18.90
2022-09-12T01:53:23.778Z,17.23
2022-09-12T01:56:12.683Z,21.43
2022-09-12T01:58:47.674Z,19.60
2022-09-12T02:01:24.341Z,18.10
2022-09-12T02:04:12.820Z,18.73
2022-09-12T02:07:06.220Z,19.87
2022-09-12T02:09:48.588Z,19.47
2022-09-12T02:12:21.974Z,20.87
2022-09-12T02:15:01.181Z,22.90
2022-09-12T02:17:29.693Z,20.63
2022-09-12T02:20:02.179Z,20.10
2022-09-12T02:22:31.662Z,19.47
2022-09-12T02:25:01.853Z,21.53
2022-09-12T02:27:54.818Z,22.80
2022-09-12T02:30:22.854Z,22.10
2022-09-12T02:33:17.943Z,22.50
2022-09-12T02:35:52.148Z,20.40
2022-09-12T02:38:46.405Z,21.43
2022-09-12T02:41:19.393Z,21.17
2022-09-12T02:43:48.324Z,21.07
2022-09-12T02:46:47.680Z,23.97
2022-09-12T02:49:15.659Z,20.70
2022-09-12T02:51:42.690Z,22.03
2022-09-12T02:54:11.823Z,24.00
2022-09-12T02:56:42.998Z,23.97
2022-09-12T02:59:14.330Z,22.73
2022-09-12T03:01:49.181Z,23.07
2022-09-12T03:04:54.597Z,26.43
2022-09-12T03:07:33.728Z,24.13
2022-09-12T03:10:03.308Z,21.87
2022-09-12T03:12:49.190Z,19.03
2022-09-12T03:15:32.100Z,24.17
2022-09-12T03:18:21.029Z,25.33
2022-09-12T03:21:08.367Z,21.47
2022-09-12T03:23:43.724Z,21.97
2022-09-12T03:26:20.183Z,21.80
2022-09-12T03:28:48.583Z,18.27
2022-09-12T03:31:17.537Z,18.97
2022-09-12T03:33:44.863Z,23.47
2022-09-12T03:36:24.748Z,19.83
2022-09-12T03:38:52.065Z,22.10
2022-09-12T03:41:19.279Z,19.33
2022-09-12T03:43:46.284Z,17.17
2022-09-12T03:46:13.716Z,20.37
2022-09-12T03:48:41.617Z,19.07
2022-09-12T03:51:10.268Z,21.80
2022-09-12T03:53:37.422Z,23.80
2022-09-12T03:56:08.951Z,21.23
2022-09-12T03:58:36.484Z,22.33
2022-09-12T04:01:12.691Z,22.17
2022-09-12T04:03:41.075Z,20.43
2022-09-12T04:06:10.377Z,21.43
2022-09-12T04:08:37.632Z,21.43
2022-09-12T04:11:10.575Z,20.23
2022-09-12T04:13:39.138Z,23.50
2022-09-12T04:16:07.284Z,22.93
2022-09-12T04:18:35.167Z,20.17
2022-09-12T04:21:06.978Z,21.03
2022-09-12T04:23:34.765Z,21.97
2022-09-12T04:26:03.163Z,20.57
2022-09-12T04:28:30.476Z,20.87
2022-09-12T04:31:02.801Z,20.50
2022-09-12T04:33:29.695Z,25.50
2022-09-12T04:35:56.655Z,22.30
2022-09-12T04:38:23.477Z,22.37
2022-09-12T04:40:50.245Z,20.07
2022-09-12T04:43:16.979Z,20.47
2022-09-12T04:45:43.738Z,19.30
2022-09-12T04:48:10.748Z,21.27
2022-09-12T04:50:37.540Z,22.63
2022-09-12T04:53:04.341Z,22.23
2022-09-12T04:55:31.239Z,21.10
2022-09-12T04:57:58.493Z,21.07
2022-09-12T05:00:25.206Z,18.67
2022-09-12T05:02:52.082Z,19.93
2022-09-12T05:05:19.108Z,20.37
2022-09-12T05:07:45.870Z,19.87
2022-09-12T05:10:12.711Z,21.07
2022-09-12T05:12:39.677Z,21.30
2022-09-12T05:15:07.562Z,23.23
2022-09-12T05:17:34.308Z,18.50
2022-09-12T05:20:01.629Z,21.27
2022-09-12T05:22:28.374Z,19.80
2022-09-12T05:24:55.123Z,16.70
2022-09-12T05:27:21.929Z,16.30
2022-09-12T05:29:48.663Z,16.87
2022-09-12T05:32:15.483Z,15.10
2022-09-12T05:34:42.423Z,14.93
2022-09-12T05:37:09.235Z,16.10
2022-09-12T05:39:35.997Z,14.27
2022-09-12T05:42:03.667Z,14.50
2022-09-12T05:44:30.961Z,15.60
2022-09-12T05:46:57.841Z,15.63
2022-09-12T05:49:24.762Z,15.20
2022-09-12T05:51:51.618Z,15.93
2022-09-12T05:54:20.460Z,12.93
2022-09-12T05:56:48.928Z,15.47
2022-09-12T05:59:21.187Z,12.13
2022-09-12T06:01:48.755Z,11.87
2022-09-12T06:04:16.168Z,12.50
2022-09-12T06:06:45.194Z,10.30
2022-09-12T06:09:13.993Z,15.47
2022-09-12T06:11:41.144Z,8.90
2022-09-12T06:14:09.937Z,8.40
2022-09-12T06:16:38.053Z,8.20
2022-09-12T06:19:16.619Z,7.20
2022-09-12T06:21:43.876Z,7.97
2022-09-12T06:24:10.808Z,11.02
2022-09-12T06:26:37.957Z,8.32
2022-09-12T06:29:05.032Z,9.35
2022-09-12T06:31:34.858Z,7.40
2022-09-12T06:34:04.764Z,7.53
2022-09-12T06:36:43.559Z,7.85
2022-09-12T06:39:13.079Z,8.25
2022-09-12T06:41:43.675Z,7.18
2022-09-12T06:44:20.033Z,7.65
2022-09-12T06:46:47.957Z,7.63
2022-09-12T06:49:15.271Z,7.20
2022-09-12T06:51:43.277Z,7.70
2022-09-12T06:54:13.804Z,7.75
2022-09-12T06:56:40.827Z,8.15
2022-09-12T06:59:07.708Z,8.32
2022-09-12T07:01:34.737Z,11.18
2022-09-12T07:04:03.965Z,9.10
2022-09-12T07:06:36.546Z,9.13
2022-09-12T07:09:05.311Z,11.93
2022-09-12T07:11:34.506Z,8.93
2022-09-12T07:14:03.462Z,8.17
2022-09-12T07:16:30.628Z,9.73
2022-09-12T07:18:59.686Z,12.17
2022-09-12T07:21:27.343Z,8.97
2022-09-12T07:23:58.060Z,10.23
2022-09-12T07:26:29.723Z,11.37
2022-09-12T07:29:13.211Z,9.03
2022-09-12T07:31:45.832Z,10.17
2022-09-12T07:34:12.940Z,9.97
2022-09-12T07:36:39.901Z,9.67
2022-09-12T07:39:06.716Z,9.90
2022-09-12T07:41:36.411Z,10.37
2022-09-12T07:44:06.634Z,8.77
2022-09-12T07:46:33.841Z,9.47
2022-09-12T07:49:01.892Z,8.83
2022-09-12T07:51:30.655Z,11.20
2022-09-12T07:53:57.842Z,8.10
2022-09-12T07:56:30.142Z,12.13
2022-09-12T07:58:58.932Z,9.20
2022-09-12T08:01:26.554Z,7.67
2022-09-12T08:03:58.503Z,8.13
2022-09-12T08:06:27.433Z,9.57
2022-09-12T08:08:59.381Z,8.27
2022-09-12T08:11:28.287Z,8.80
2022-09-12T08:13:57.616Z,9.67
2022-09-12T08:16:27.555Z,7.00
2022-09-12T08:18:54.655Z,7.85
2022-09-12T08:21:26.481Z,6.57
2022-09-12T08:23:55.781Z,8.43
2022-09-12T08:26:23.517Z,6.03
2022-09-12T08:28:50.676Z,5.70
2022-09-12T08:31:19.434Z,6.80
2022-09-12T08:33:46.534Z,8.50
2022-09-12T08:36:16.305Z,7.05
2022-09-12T08:38:45.493Z,6.18
2022-09-12T08:41:18.585Z,6.70
2022-09-12T08:44:07.389Z,6.05
2022-09-12T08:47:07.792Z,4.85
2022-09-12T08:50:05.120Z,6.72
2022-09-12T08:52:50.202Z,5.40
2022-09-12T08:55:36.425Z,4.93
2022-09-12T08:58:17.075Z,5.00
2022-09-12T09:00:51.238Z,5.28
2022-09-12T09:03:56.857Z,8.40
2022-09-12T09:06:35.487Z,6.47
2022-09-12T09:09:31.854Z,5.25
2022-09-12T09:12:20.221Z,6.72
2022-09-12T09:14:59.034Z,8.35
2022-09-12T09:17:34.875Z,5.28
2022-09-12T09:20:18.957Z,6.72
2022-09-12T09:22:51.137Z,5.93
2022-09-12T09:25:23.580Z,5.93
2022-09-12T09:27:59.765Z,5.40
2022-09-12T09:30:26.906Z,5.47
2022-09-12T09:33:00.261Z,4.95
2022-09-12T09:35:33.132Z,6.50
2022-09-12T09:38:28.452Z,4.20
2022-09-12T09:41:04.241Z,4.72
2022-09-12T09:43:31.254Z,4.30
2022-09-12T09:46:01.782Z,5.95
2022-09-12T09:48:31.211Z,5.95
2022-09-12T09:51:00.343Z,5.40
2022-09-12T09:53:51.117Z,5.78
2022-09-12T09:56:37.070Z,4.28
2022-09-12T09:59:31.271Z,6.18
2022-09-12T10:02:04.128Z,6.05
2022-09-12T10:04:40.695Z,5.10
2022-09-12T10:07:24.552Z,5.55
2022-09-12T10:10:13.191Z,5.10
2022-09-12T10:12:40.564Z,5.63
2022-09-12T10:15:29.534Z,5.75
2022-09-12T10:17:56.811Z,6.70
2022-09-12T10:20:36.071Z,5.70
2022-09-12T10:23:18.918Z,5.00
2022-09-12T10:25:53.891Z,5.72
2022-09-12T10:28:27.198Z,6.57
2022-09-12T10:30:56.061Z,5.22
2022-09-12T10:33:24.831Z,7.00
2022-09-12T10:35:53.605Z,6.07
2022-09-12T10:38:25.355Z,6.20
2022-09-12T10:41:10.566Z,9.15
2022-09-12T10:43:39.772Z,6.95
2022-09-12T10:46:18.185Z,6.28
2022-09-12T10:49:11.969Z,6.32
2022-09-12T10:51:38.709Z,6.63
2022-09-12T10:54:10.341Z,7.32
2022-09-12T10:56:54.457Z,9.00
2022-09-12T10:59:53.975Z,8.48
2022-09-12T11:02:51.520Z,7.78
2022-09-12T11:05:23.034Z,7.68
2022-09-12T11:08:08.946Z,8.40
2022-09-12T11:10:51.665Z,8.32
2022-09-12T11:13:30.406Z,9.10
2022-09-12T11:16:06.762Z,9.18
2022-09-12T11:18:48.280Z,8.95
2022-09-12T11:21:49.539Z,6.22
2022-09-12T11:24:42.209Z,7.55
2022-09-12T11:27:26.962Z,7.32
2022-09-12T11:30:09.899Z,8.82
2022-09-12T11:32:57.139Z,7.60
2022-09-12T11:35:25.890Z,6.35
2022-09-12T11:38:20.381Z,9.15
2022-09-12T11:41:01.594Z,8.32
2022-09-12T11:43:40.227Z,9.38
2022-09-12T11:46:30.112Z,8.02
2022-09-12T11:49:13.953Z,8.43
2022-09-12T11:51:49.923Z,6.55
2022-09-12T11:54:28.769Z,7.20
2022-09-12T11:57:13.934Z,6.15
2022-09-12T11:59:52.560Z,6.10
2022-09-12T12:02:48.347Z,7.38
2022-09-12T12:05:47.813Z,8.13
2022-09-12T12:08:14.728Z,8.95
2022-09-12T12:10:49.348Z,7.60
2022-09-12T12:13:25.642Z,8.55
2022-09-12T12:15:56.673Z,9.43
2022-09-12T12:18:23.689Z,6.55
2022-09-12T12:20:51.418Z,7.35
2022-09-12T12:23:27.313Z,10.82
2022-09-12T12:25:56.674Z,8.07
2022-09-12T12:28:41.810Z,7.43
2022-09-12T12:31:10.688Z,8.82
2022-09-12T12:33:37.529Z,6.88
2022-09-12T12:36:09.369Z,8.65
2022-09-12T12:38:38.493Z,9.68
2022-09-12T12:41:17.492Z,5.85
2022-09-12T12:43:51.016Z,4.47
2022-09-12T12:46:20.368Z,5.13
2022-09-12T12:48:55.886Z,6.50
2022-09-12T12:51:31.869Z,6.72
2022-09-12T12:54:01.783Z,5.78
2022-09-12T12:56:34.107Z,6.68
2022-09-12T12:59:04.820Z,6.97
2022-09-12T13:01:32.371Z,7.18
2022-09-12T13:04:06.417Z,6.82
2022-09-12T13:06:42.794Z,6.13
2022-09-12T13:09:27.405Z,7.32
2022-09-12T13:12:05.644Z,5.35
2022-09-12T13:14:55.694Z,5.90
2022-09-12T13:17:26.046Z,5.57
2022-09-12T13:20:26.291Z,5.85
2022-09-12T13:22:51.784Z,5.53
2022-09-12T13:25:22.341Z,4.70
2022-09-12T13:28:01.983Z,5.85
2022-09-12T13:30:32.860Z,4.20
2022-09-12T13:33:21.293Z,7.05
2022-09-12T13:36:09.934Z,5.40
2022-09-12T13:39:00.024Z,6.85
2022-09-12T13:41:48.217Z,6.47
2022-09-12T13:44:18.249Z,7.10
2022-09-12T13:46:45.459Z,5.00
2022-09-12T13:49:21.588Z,4.72
2022-09-12T13:52:18.161Z,5.10
2022-09-12T13:54:48.538Z,6.75
2022-09-12T13:57:38.105Z,9.48
2022-09-12T14:00:13.169Z,5.85
2022-09-12T14:02:40.639Z,5.60
2022-09-12T14:05:21.240Z,6.07
2022-09-12T14:07:57.177Z,6.93
2022-09-12T14:10:31.825Z,4.10
2022-09-12T14:13:01.113Z,6.40
2022-09-12T14:15:32.006Z,5.85
2022-09-12T14:18:01.778Z,4.55
2022-09-12T14:20:33.424Z,7.07
2022-09-12T14:23:27.691Z,5.07
2022-09-12T14:26:00.098Z,6.30
2022-09-12T14:28:30.331Z,4.57
2022-09-12T14:31:23.705Z,5.00
2022-09-12T14:33:56.980Z,4.80
2022-09-12T14:36:25.263Z,6.65
2022-09-12T14:39:04.887Z,4.07
2022-09-12T14:41:36.668Z,6.07
2022-09-12T14:44:08.362Z,5.60
2022-09-12T14:46:40.231Z,4.25
2022-09-12T14:49:16.399Z,4.00
2022-09-12T14:51:54.431Z,7.30
2022-09-12T14:54:42.905Z,4.57
2022-09-12T14:57:28.366Z,4.88
2022-09-12T15:00:09.515Z,4.82
2022-09-12T15:02:36.353Z,5.25
2022-09-12T15:05:09.058Z,4.43
2022-09-12T15:07:41.995Z,4.95
2022-09-12T15:10:23.058Z,4.20
2022-09-12T15:12:49.920Z,9.45
2022-09-12T15:15:19.798Z,5.22
2022-09-12T15:17:47.297Z,5.22
2022-09-12T15:20:14.762Z,4.38
2022-09-12T15:22:42.448Z,4.50
2022-09-12T15:25:12.288Z,5.30
2022-09-12T15:27:42.386Z,6.72
2022-09-12T15:30:10.365Z,6.03
2022-09-12T15:32:37.654Z,5.07
2022-09-12T15:35:10.153Z,8.27
2022-09-12T15:37:36.920Z,5.10
2022-09-12T15:40:04.965Z,5.47
2022-09-12T15:42:32.266Z,6.15
2022-09-12T15:45:02.537Z,4.68
2022-09-12T15:47:29.618Z,6.90
2022-09-12T15:49:56.538Z,4.45
2022-09-12T15:52:23.407Z,5.15
2022-09-12T15:54:50.113Z,5.00
2022-09-12T15:57:16.982Z,5.10
2022-09-12T15:59:43.747Z,6.32
2022-09-12T16:02:11.877Z,5.78
2022-09-12T16:04:38.616Z,4.80
2022-09-12T16:07:05.532Z,5.60
2022-09-12T16:09:32.324Z,4.88
2022-09-12T16:11:59.136Z,4.82
2022-09-12T16:14:25.906Z,5.43
2022-09-12T16:16:54.596Z,5.30
2022-09-12T16:19:22.182Z,4.70
2022-09-12T16:21:49.254Z,5.30
2022-09-12T16:24:16.350Z,5.10
2022-09-12T16:26:43.171Z,4.65
2022-09-12T16:29:12.886Z,4.78
2022-09-12T16:31:40.108Z,6.43
2022-09-12T16:34:07.363Z,4.82
2022-09-12T16:36:34.327Z,4.63
2022-09-12T16:39:01.067Z,5.75
2022-09-12T16:41:28.177Z,4.78
2022-09-12T16:43:55.435Z,4.18
2022-09-12T16:46:25.121Z,4.82
2022-09-12T16:48:54.857Z,4.70
2022-09-12T16:51:28.471Z,5.10
2022-09-12T16:53:55.659Z,6.13
2022-09-12T16:56:23.383Z,4.40
2022-09-12T16:58:50.696Z,4.97
2022-09-12T17:01:25.395Z,4.75
2022-09-12T17:03:58.205Z,6.20
2022-09-12T17:06:25.946Z,5.20
2022-09-12T17:08:54.487Z,4.85
2022-09-12T17:11:23.003Z,6.18
2022-09-12T17:14:07.846Z,8.48
2022-09-12T17:16:37.816Z,6.85
2022-09-12T17:19:05.900Z,5.40
2022-09-12T17:21:33.400Z,5.20
2022-09-12T17:24:00.177Z,5.00
2022-09-12T17:26:27.031Z,5.50
2022-09-12T17:28:53.853Z,7.93
2022-09-12T17:31:20.771Z,6.93
2022-09-12T17:33:47.737Z,5.95
2022-09-12T17:36:17.801Z,5.80
2022-09-12T17:38:45.862Z,5.57
2022-09-12T17:41:18.595Z,5.03
2022-09-12T17:43:51.281Z,5.75
2022-09-12T17:46:21.825Z,5.97
2022-09-12T17:48:53.518Z,5.53
2022-09-12T17:51:22.377Z,6.45
2022-09-12T17:53:49.345Z,6.70
2022-09-12T17:56:16.171Z,7.20
2022-09-12T17:58:43.174Z,8.75
2022-09-12T18:01:33.129Z,6.30
2022-09-12T18:04:00.781Z,5.60
2022-09-12T18:06:28.665Z,6.10
2022-09-12T18:08:55.660Z,5.65
2022-09-12T18:11:22.527Z,6.40
2022-09-12T18:13:49.661Z,4.67
2022-09-12T18:16:17.620Z,5.10
2022-09-12T18:18:44.527Z,4.30
2022-09-12T18:21:12.670Z,5.60
2022-09-12T18:23:39.643Z,6.03
2022-09-12T18:26:10.724Z,5.83
2022-09-12T18:28:40.200Z,5.17
2022-09-12T18:31:13.207Z,5.00
2022-09-12T18:33:41.010Z,5.87
2022-09-12T18:36:10.286Z,5.33
2022-09-12T18:38:38.185Z,4.63
2022-09-12T18:41:13.331Z,4.63
2022-09-12T18:43:40.509Z,8.63
2022-09-12T18:46:10.850Z,5.27
2022-09-12T18:48:38.548Z,5.23
2022-09-12T18:51:14.817Z,5.77
2022-09-12T18:53:43.045Z,6.97
2022-09-12T18:56:14.236Z,4.03
2022-09-12T18:58:43.562Z,4.00
2022-09-12T19:01:15.983Z,3.40
2022-09-12T19:03:43.498Z,3.90
2022-09-12T19:06:17.582Z,6.97
2022-09-12T19:08:45.515Z,3.37
2022-09-12T19:11:13.201Z,3.97
2022-09-12T19:13:42.783Z,3.40
2022-09-12T19:16:11.949Z,4.27
2022-09-12T19:18:40.044Z,3.87
2022-09-12T19:21:15.581Z,4.37
2022-09-12T19:23:42.505Z,3.30
2022-09-12T19:26:12.378Z,3.70
2022-09-12T19:28:39.264Z,4.30
2022-09-12T19:31:07.798Z,3.97
2022-09-12T19:33:34.919Z,3.57
2022-09-12T19:36:17.507Z,5.00
2022-09-12T19:38:53.553Z,4.50
2022-09-12T19:41:20.523Z,3.40
2022-09-12T19:43:47.393Z,4.20
2022-09-12T19:46:21.595Z,3.50
2022-09-12T19:48:48.842Z,5.13
2022-09-12T19:51:16.504Z,4.10
2022-09-12T19:53:43.850Z,4.10
2022-09-12T19:56:12.860Z,5.07
2022-09-12T19:58:45.382Z,4.13
2022-09-12T20:01:28.610Z,4.00
2022-09-12T20:03:56.787Z,3.57
2022-09-12T20:06:23.878Z,4.10
2022-09-12T20:08:50.842Z,3.93
2022-09-12T20:11:20.567Z,3.93
2022-09-12T20:13:47.728Z,4.10
2022-09-12T20:16:21.722Z,5.30
2022-09-12T20:18:54.473Z,5.17
2022-09-12T20:21:31.212Z,4.57
2022-09-12T20:24:01.747Z,4.30
2022-09-12T20:26:28.619Z,3.93
2022-09-12T20:28:56.246Z,4.13
2022-09-12T20:31:23.324Z,4.70
2022-09-12T20:33:52.105Z,3.70
2022-09-12T20:36:21.025Z,4.50
2022-09-12T20:38:50.363Z,4.13
2022-09-12T20:41:18.336Z,4.27
2022-09-12T20:43:45.184Z,3.80
2022-09-12T20:46:12.269Z,3.80
2022-09-12T20:48:39.423Z,5.20
2022-09-12T20:51:07.469Z,6.57
2022-09-12T20:53:35.419Z,6.07
2022-09-12T20:56:03.528Z,3.97
2022-09-12T20:58:30.352Z,4.33
2022-09-12T21:00:57.289Z,6.47
2022-09-12T21:03:25.472Z,3.90
2022-09-12T21:05:52.325Z,5.67
2022-09-12T21:08:19.127Z,4.30
2022-09-12T21:10:45.900Z,5.73
2022-09-12T21:13:13.668Z,4.13
2022-09-12T21:15:41.176Z,4.30
2022-09-12T21:18:08.399Z,5.03
2022-09-12T21:20:35.427Z,4.20
2022-09-12T21:23:02.461Z,4.67
2022-09-12T21:25:29.934Z,4.70
2022-09-12T21:27:56.833Z,4.33
2022-09-12T21:30:23.625Z,4.77
2022-09-12T21:32:50.333Z,4.73
2022-09-12T21:35:17.427Z,4.00
2022-09-12T21:37:44.271Z,4.70
2022-09-12T21:40:11.236Z,4.80
2022-09-12T21:42:38.175Z,3.80
2022-09-12T21:45:05.664Z,4.73
2022-09-12T21:47:32.454Z,4.27
2022-09-12T21:49:59.341Z,4.07
2022-09-12T21:52:26.381Z,3.60
2022-09-12T21:54:53.164Z,5.17
2022-09-12T21:57:19.926Z,4.10
2022-09-12T21:59:46.635Z,4.37
2022-09-12T22:02:13.830Z,7.23
2022-09-12T22:04:40.657Z,5.37
2022-09-12T22:07:07.919Z,5.40
2022-09-12T22:09:35.454Z,4.80
2022-09-12T22:12:02.559Z,4.43
2022-09-12T22:14:29.714Z,5.10
2022-09-12T22:16:56.941Z,3.73
2022-09-12T22:19:23.865Z,4.73
2022-09-12T22:22:09.446Z,5.23
2022-09-12T22:24:36.539Z,3.87
2022-09-12T22:27:05.700Z,5.93
2022-09-12T22:29:32.740Z,4.53
2022-09-12T22:32:00.049Z,4.57
2022-09-12T22:34:27.830Z,6.47
2022-09-12T22:36:54.919Z,5.53
2022-09-12T22:39:22.103Z,6.53
2022-09-12T22:41:49.314Z,4.53
2022-09-12T22:44:17.768Z,6.00
2022-09-12T22:46:44.963Z,4.63
2022-09-12T22:49:11.741Z,13.77
2022-09-12T22:51:38.965Z,8.37
2022-09-12T22:54:06.243Z,7.23
2022-09-12T22:56:33.891Z,5.57
2022-09-12T22:59:01.292Z,4.10
2022-09-12T23:01:28.318Z,4.40
2022-09-12T23:03:55.178Z,5.07
2022-09-12T23:06:21.961Z,5.00
2022-09-12T23:08:48.719Z,4.63
2022-09-12T23:11:17.655Z,6.10
2022-09-12T23:13:46.794Z,5.07
2022-09-12T23:16:22.666Z,4.83
2022-09-12T23:18:49.994Z,4.63
2022-09-12T23:21:19.152Z,4.30
2022-09-12T23:23:46.380Z,5.93
2022-09-12T23:26:22.638Z,3.87
2022-09-12T23:28:55.440Z,6.13
2022-09-12T23:31:24.185Z,5.07
2022-09-12T23:33:55.720Z,7.63
2022-09-12T23:36:23.444Z,4.90
2022-09-12T23:38:50.485Z,8.37
2022-09-12T23:41:18.444Z,4.80
2022-09-12T23:43:45.974Z,5.33
2022-09-12T23:46:17.436Z,5.60
2022-09-12T23:48:44.787Z,5.57
2022-09-12T23:51:12.030Z,4.73
2022-09-12T23:53:39.633Z,6.30
2022-09-12T23:56:07.292Z,8.17
2022-09-12T23:58:34.085Z,5.00
